Time;durP1;ratioP1;P1;durP2;ratioP2;P2;SDS_P1;SDS_P2;PMS_P1;PMS_P2;Temp;Humidity;BMP_temperature;BMP_pressure;BME280_temperature;BME280_humidity;BME280_pressure;Samples;Min_cycle;Max_cycle;Signal;HPM_P1;HPM_P2
2020/12/01 00:00:00;;;;;;;5.20;4.57;;;5.90;99.90;;;;;;4974301;28;20844;-65
2020/12/01 00:02:26;;;;;;;6.03;4.53;;;6.00;99.90;;;;;;4974203;28;20615;-65
2020/12/01 00:08:13;;;;;;;7.40;4.50;;;6.00;99.90;;;;;;4977651;28;20770;-62
2020/12/01 00:10:39;;;;;;;6.60;4.20;;;6.00;99.90;;;;;;4977799;28;20428;-63
2020/12/01 00:13:06;;;;;;;5.97;4.63;;;6.10;99.90;;;;;;4977491;28;20714;-62
2020/12/01 00:15:32;;;;;;;5.23;3.90;;;6.10;99.90;;;;;;4960394;28;20973;-62
2020/12/01 00:17:57;;;;;;;5.87;4.27;;;6.10;99.90;;;;;;4977327;28;20429;-62
2020/12/01 00:20:24;;;;;;;5.43;4.00;;;6.10;99.90;;;;;;4977592;28;20181;-63
2020/12/01 00:22:52;;;;;;;3.90;3.37;;;6.20;99.90;;;;;;4977391;28;20728;-62
2020/12/01 00:25:18;;;;;;;4.97;3.80;;;6.20;99.90;;;;;;4977570;28;20428;-63
2020/12/01 00:27:45;;;;;;;4.77;4.17;;;6.10;99.90;;;;;;4977507;28;20495;-63
2020/12/01 00:30:16;;;;;;;4.97;4.07;;;6.10;99.90;;;;;;4977223;28;20499;-63
2020/12/01 00:32:42;;;;;;;5.83;4.67;;;6.10;99.90;;;;;;4977049;28;20437;-63
2020/12/01 00:35:09;;;;;;;4.10;3.70;;;6.20;99.90;;;;;;4977352;28;20795;-63
2020/12/01 00:37:38;;;;;;;5.70;4.10;;;6.10;99.90;;;;;;4977007;28;20445;-63
2020/12/01 00:40:08;;;;;;;6.03;4.50;;;6.10;99.90;;;;;;4977316;28;20433;-63
2020/12/01 00:45:56;;;;;;;5.23;4.53;;;6.10;99.90;;;;;;4976718;28;21000;-64
2020/12/01 00:48:21;;;;;;;7.40;5.10;;;5.90;99.90;;;;;;4976843;28;20830;-63
2020/12/01 00:50:47;;;;;;;5.23;4.10;;;5.90;99.90;;;;;;4977062;28;20433;-64
2020/12/01 00:53:12;;;;;;;4.43;4.07;;;6.00;99.90;;;;;;4977050;28;20280;-64
2020/12/01 00:55:38;;;;;;;6.10;4.97;;;6.00;99.90;;;;;;4976774;28;20617;-63
2020/12/01 00:58:04;;;;;;;5.30;3.80;;;6.10;99.90;;;;;;4976968;28;20181;-63
2020/12/01 01:00:31;;;;;;;5.57;4.30;;;6.10;99.90;;;;;;4976464;28;20228;-64
2020/12/01 01:02:58;;;;;;;5.80;4.23;;;6.10;99.90;;;;;;4976460;28;20184;-64
2020/12/01 01:05:23;;;;;;;4.93;4.40;;;6.00;99.90;;;;;;4976475;28;20432;-65
2020/12/01 01:07:49;;;;;;;5.73;4.37;;;6.20;99.90;;;;;;4976430;28;20441;-64
2020/12/01 01:10:18;;;;;;;5.70;4.43;;;6.10;99.90;;;;;;4976106;28;20185;-64
2020/12/01 01:12:44;;;;;;;5.43;4.00;;;6.20;99.90;;;;;;4976279;28;20541;-64
2020/12/01 01:15:11;;;;;;;4.27;3.90;;;6.30;99.90;;;;;;4976231;28;20429;-64
2020/12/01 01:17:36;;;;;;;4.50;3.20;;;6.40;99.90;;;;;;4976649;28;20189;-64
2020/12/01 01:20:03;;;;;;;4.07;3.67;;;6.40;99.90;;;;;;4976603;28;20432;-64
2020/12/01 01:22:28;;;;;;;4.03;2.90;;;6.30;99.90;;;;;;4976476;28;20218;-64
2020/12/01 01:24:54;;;;;;;3.40;3.10;;;6.30;99.90;;;;;;4975996;28;20467;-64
2020/12/01 01:27:19;;;;;;;5.10;2.90;;;6.30;99.90;;;;;;4976717;28;20556;-64
2020/12/01 01:29:45;;;;;;;3.90;3.60;;;6.30;99.90;;;;;;4976071;28;20701;-64
2020/12/01 01:32:10;;;;;;;3.67;3.10;;;6.30;99.90;;;;;;4976346;28;20185;-64
2020/12/01 01:34:36;;;;;;;3.93;3.47;;;6.30;99.90;;;;;;4976279;28;20178;-64
2020/12/01 01:37:03;;;;;;;3.60;2.80;;;6.30;99.90;;;;;;4976300;28;20279;-64
2020/12/01 01:39:29;;;;;;;3.40;3.10;;;6.30;99.90;;;;;;4975954;28;20173;-64
2020/12/01 01:45:31;;;;;;;3.57;3.23;;;6.30;99.90;;;;;;4975982;28;20241;-63
2020/12/01 01:47:56;;;;;;;3.47;3.17;;;6.50;99.90;;;;;;4976106;28;20417;-64
2020/12/01 01:50:22;;;;;;;3.93;3.40;;;6.50;99.90;;;;;;4976059;28;20476;-65
2020/12/01 01:52:50;;;;;;;5.00;3.80;;;6.30;99.90;;;;;;4975749;28;20184;-64
2020/12/01 01:55:24;;;;;;;4.50;3.47;;;6.40;99.90;;;;;;4976021;28;20428;-64
2020/12/01 01:57:54;;;;;;;4.13;3.53;;;6.40;99.90;;;;;;4976023;28;20425;-65
2020/12/01 02:00:57;;;;;;;3.80;3.50;;;6.30;99.90;;;;;;4975951;28;20440;-66
2020/12/01 02:03:30;;;;;;;4.70;4.20;;;6.30;99.90;;;;;;4975610;28;20451;-66
2020/12/01 02:05:56;;;;;;;4.23;3.80;;;6.40;99.90;;;;;;4975831;28;20435;-65
2020/12/01 02:08:23;;;;;;;5.27;4.20;;;6.50;99.90;;;;;;4975804;28;20491;-65
2020/12/01 02:10:48;;;;;;;5.83;4.23;;;6.30;99.90;;;;;;4975510;28;20461;-65
2020/12/01 02:13:18;;;;;;;6.93;4.83;;;6.40;99.90;;;;;;4975723;28;20462;-65
2020/12/01 02:15:44;;;;;;;5.40;4.57;;;6.40;99.90;;;;;;4975685;28;20791;-65
2020/12/01 02:18:09;;;;;;;5.93;4.40;;;6.40;99.90;;;;;;4975617;28;20504;-66
2020/12/01 02:20:36;;;;;;;6.53;5.30;;;6.40;99.90;;;;;;4975534;28;20185;-66
2020/12/01 02:23:02;;;;;;;6.23;4.80;;;6.60;99.90;;;;;;4975330;28;20237;-65
2020/12/01 02:25:28;;;;;;;6.90;6.20;;;6.60;99.90;;;;;;4975448;28;20826;-65
2020/12/01 02:27:56;;;;;;;7.93;5.73;;;6.50;99.90;;;;;;4974872;28;20428;-65
2020/12/01 02:30:22;;;;;;;6.50;5.50;;;6.50;99.90;;;;;;4975097;28;20633;-65
2020/12/01 02:32:48;;;;;;;7.37;5.50;;;6.50;99.90;;;;;;4975100;28;20483;-65
2020/12/01 02:35:14;;;;;;;6.60;5.90;;;6.50;99.90;;;;;;4975376;28;20429;-65
2020/12/01 02:37:42;;;;;;;7.37;5.67;;;6.40;99.90;;;;;;4975318;28;20644;-65
2020/12/01 02:40:10;;;;;;;7.10;5.57;;;6.60;99.90;;;;;;4975285;28;20526;-64
2020/12/01 02:42:36;;;;;;;5.97;5.37;;;6.50;99.90;;;;;;4975107;28;20821;-65
2020/12/01 02:45:04;;;;;;;7.20;5.27;;;6.50;99.90;;;;;;4975139;28;20425;-65
2020/12/01 02:47:30;;;;;;;6.73;5.27;;;6.50;99.90;;;;;;4975111;28;20279;-65
2020/12/01 02:49:56;;;;;;;5.00;4.33;;;6.50;99.90;;;;;;4974777;28;20916;-64
2020/12/01 02:52:23;;;;;;;7.40;4.60;;;6.60;99.90;;;;;;4974758;28;20433;-64
2020/12/01 02:54:52;;;;;;;4.33;3.93;;;6.60;99.90;;;;;;4975027;28;20193;-64
2020/12/01 02:57:20;;;;;;;5.63;4.60;;;6.50;99.90;;;;;;4974702;28;20445;-64
2020/12/01 02:59:46;;;;;;;5.33;4.33;;;6.40;99.90;;;;;;4974718;28;20436;-63
2020/12/01 03:05:33;;;;;;;5.17;4.37;;;6.40;99.90;;;;;;4974753;28;20169;-63
2020/12/01 03:07:59;;;;;;;9.33;4.93;;;6.50;99.90;;;;;;4974908;28;20413;-63
2020/12/01 03:10:24;;;;;;;5.33;3.77;;;6.50;99.90;;;;;;4974561;28;20188;-63
2020/12/01 03:12:50;;;;;;;3.87;3.43;;;6.60;99.90;;;;;;4974544;28;20205;-63
2020/12/01 03:15:16;;;;;;;4.83;3.90;;;6.50;99.90;;;;;;4974845;28;20192;-63
2020/12/01 03:17:42;;;;;;;5.90;4.80;;;6.50;99.90;;;;;;4957262;28;20176;-63
2020/12/01 03:20:07;;;;;;;6.83;5.00;;;6.50;99.90;;;;;;4974766;28;20434;-61
2020/12/01 03:26:09;;;;;;;4.67;4.07;;;6.40;99.90;;;;;;4965201;28;20278;-61
2020/12/01 03:28:35;;;;;;;9.40;4.60;;;6.50;99.90;;;;;;4974559;28;20535;-61
2020/12/01 03:31:00;;;;;;;10.70;5.67;;;6.50;99.90;;;;;;4974626;28;20511;-61
2020/12/01 03:33:26;;;;;;;7.10;6.00;;;6.50;99.90;;;;;;4974579;28;20190;-61
2020/12/01 03:35:52;;;;;;;6.60;4.33;;;6.60;99.90;;;;;;4974243;28;20181;-61
2020/12/01 03:38:18;;;;;;;6.23;4.40;;;6.50;99.90;;;;;;4975952;28;20896;-61
2020/12/01 03:40:44;;;;;;;5.20;4.70;;;6.50;99.90;;;;;;4978319;28;20180;-62
2020/12/01 03:43:11;;;;;;;5.37;4.70;;;6.60;99.90;;;;;;4978044;28;20448;-63
2020/12/01 03:45:36;;;;;;;8.67;5.20;;;6.60;99.90;;;;;;4978252;28;20204;-64
2020/12/01 03:48:02;;;;;;;10.07;5.67;;;6.70;99.90;;;;;;4978274;28;20436;-65
2020/12/01 03:50:28;;;;;;;7.23;5.63;;;6.80;99.90;;;;;;4978185;28;20263;-63
2020/12/01 03:52:55;;;;;;;7.83;5.97;;;6.70;99.90;;;;;;4978176;28;20173;-63
2020/12/01 03:55:22;;;;;;;6.27;5.67;;;6.70;99.90;;;;;;4978059;28;20425;-62
2020/12/01 03:57:47;;;;;;;5.93;5.03;;;6.70;99.90;;;;;;4978386;28;20429;-62
2020/12/01 04:00:17;;;;;;;7.00;4.63;;;6.70;99.90;;;;;;4978067;28;20852;-62
2020/12/01 04:06:04;;;;;;;5.73;4.73;;;6.70;99.90;;;;;;4977605;28;20413;-63
2020/12/01 04:08:30;;;;;;;7.73;5.23;;;6.70;99.90;;;;;;4977859;28;20419;-62
2020/12/01 04:10:56;;;;;;;7.30;5.27;;;6.80;99.90;;;;;;4977929;28;20178;-62
2020/12/01 04:13:22;;;;;;;6.07;4.97;;;6.70;99.90;;;;;;4977574;28;20177;-63
2020/12/01 04:15:47;;;;;;;5.40;4.60;;;6.70;99.90;;;;;;4977883;28;20177;-62
2020/12/01 04:18:13;;;;;;;7.53;4.93;;;6.80;99.90;;;;;;4977818;28;20173;-61
2020/12/01 04:20:39;;;;;;;6.77;4.60;;;6.80;99.90;;;;;;4977742;28;20182;-62
2020/12/01 04:23:04;;;;;;;5.60;5.10;;;6.80;99.90;;;;;;4977469;28;20443;-63
2020/12/01 04:25:30;;;;;;;5.43;4.90;;;6.70;99.90;;;;;;4977388;28;20287;-63
2020/12/01 04:27:56;;;;;;;8.30;5.40;;;6.60;99.90;;;;;;4977660;28;20268;-63
2020/12/01 04:30:23;;;;;;;7.00;6.30;;;6.70;99.90;;;;;;4977636;28;20182;-63
2020/12/01 06:33:22;;;;;;;14.40;8.40;;;6.80;99.90;;;;;;4990268;28;20553;-62
2020/12/01 06:36:25;;;;;;;11.27;7.83;;;6.90;99.90;;;;;;4974912;28;20448;-62
2020/12/01 06:38:54;;;;;;;22.03;10.90;;;6.90;99.90;;;;;;4992553;28;20431;-62
2020/12/01 06:41:23;;;;;;;18.53;10.77;;;6.90;99.90;;;;;;4992784;28;20872;-64
2020/12/01 06:43:58;;;;;;;19.27;12.97;;;6.90;99.90;;;;;;5018774;23;20500;-63
2020/12/01 06:49:45;;;;;;;18.97;12.50;;;7.00;99.90;;;;;;4994270;28;20404;-64
2020/12/01 06:52:13;;;;;;;18.97;12.17;;;7.00;99.90;;;;;;4994378;28;20428;-65
2020/12/01 06:54:50;;;;;;;15.57;10.70;;;7.00;99.90;;;;;;4994376;28;20584;-64
2020/12/01 06:57:42;;;;;;;16.83;9.10;;;7.00;99.90;;;;;;4994312;28;20456;-63
2020/12/01 07:00:08;;;;;;;18.20;10.70;;;7.10;99.90;;;;;;4990426;28;20467;-65
2020/12/01 07:02:39;;;;;;;20.50;11.37;;;7.10;99.90;;;;;;4994205;28;20475;-64
2020/12/01 07:08:28;;;;;;;17.63;11.60;;;7.20;99.90;;;;;;4994054;28;20783;-63
2020/12/01 07:11:24;;;;;;;28.60;13.07;;;7.10;99.90;;;;;;4993874;28;20424;-64
2020/12/01 07:13:57;;;;;;;18.27;11.60;;;7.20;99.90;;;;;;4993888;28;20406;-64
2020/12/01 07:16:31;;;;;;;19.80;11.63;;;7.20;99.90;;;;;;4994237;28;20411;-64
2020/12/01 07:19:05;;;;;;;27.17;14.98;;;7.20;99.90;;;;;;4993740;28;20452;-62
2020/12/01 07:25:02;;;;;;;25.53;14.80;;;7.40;99.90;;;;;;4994165;28;20204;-63
2020/12/01 07:30:57;;;;;;;21.73;13.17;;;7.50;99.90;;;;;;4993818;28;20435;-63
2020/12/01 07:36:49;;;;;;;25.70;13.17;;;7.60;99.90;;;;;;4993772;28;20500;-63
2020/12/01 07:39:18;;;;;;;28.17;14.47;;;7.70;99.90;;;;;;4993962;28;20416;-63
2020/12/01 07:41:53;;;;;;;27.30;14.70;;;7.70;99.90;;;;;;4993840;28;20471;-63
2020/12/01 07:44:25;;;;;;;26.27;13.40;;;7.70;99.90;;;;;;4993448;28;21033;-63
2020/12/01 07:47:10;;;;;;;26.40;13.87;;;7.70;99.90;;;;;;4993892;28;20491;-63
2020/12/01 07:49:36;;;;;;;31.43;13.90;;;7.70;99.90;;;;;;4993558;28;20428;-63
2020/12/01 07:52:14;;;;;;;26.90;14.13;;;7.90;99.90;;;;;;4993768;28;20440;-63
2020/12/01 07:54:42;;;;;;;30.07;17.33;;;7.80;99.90;;;;;;4993860;28;20539;-63
2020/12/01 07:57:20;;;;;;;25.13;14.30;;;7.90;99.90;;;;;;4993360;28;20436;-63
2020/12/01 07:59:48;;;;;;;40.70;17.27;;;7.80;99.90;;;;;;4993678;28;20478;-63
2020/12/01 08:02:15;;;;;;;27.50;17.20;;;7.80;99.90;;;;;;4993601;28;20575;-63
2020/12/01 08:04:41;;;;;;;28.97;15.90;;;7.80;99.90;;;;;;4993398;28;20451;-63
2020/12/01 08:07:13;;;;;;;32.17;15.63;;;7.80;99.90;;;;;;4993641;28;20428;-63
2020/12/01 08:09:39;;;;;;;33.37;14.97;;;7.80;99.90;;;;;;4993478;28;20173;-63
2020/12/01 08:12:10;;;;;;;36.07;16.93;;;7.80;99.90;;;;;;4993291;28;20430;-63
2020/12/01 08:14:36;;;;;;;29.63;17.33;;;7.80;99.90;;;;;;4993674;28;20216;-62
2020/12/01 08:17:20;;;;;;;34.40;17.93;;;8.00;99.90;;;;;;4993679;28;20436;-63
2020/12/01 08:19:47;;;;;;;27.00;16.87;;;7.90;99.90;;;;;;4993605;28;20476;-63
2020/12/01 08:22:18;;;;;;;30.97;16.20;;;8.00;99.90;;;;;;4993409;28;20507;-63
2020/12/01 08:24:45;;;;;;;35.73;19.00;;;7.90;99.90;;;;;;4993988;28;20930;-63
2020/12/01 08:27:31;;;;;;;29.73;16.80;;;7.90;99.90;;;;;;4996988;28;20435;-62
2020/12/01 08:29:59;;;;;;;28.60;17.40;;;7.90;99.90;;;;;;4996624;28;20479;-63
2020/12/01 08:32:37;;;;;;;47.60;18.40;;;7.90;99.90;;;;;;4996905;28;20419;-63
2020/12/01 08:35:20;;;;;;;35.00;19.10;;;7.90;99.90;;;;;;4996897;28;20417;-63
2020/12/01 08:38:22;;;;;;;40.83;18.13;;;7.80;99.90;;;;;;4996563;28;20915;-62
2020/12/01 08:41:15;;;;;;;36.70;16.37;;;7.80;99.90;;;;;;4996702;28;20416;-63
2020/12/01 08:44:34;;;;;;;38.03;19.80;;;7.80;99.90;;;;;;4996797;28;20785;-63
2020/12/01 08:47:01;;;;;;;38.97;19.00;;;7.90;99.90;;;;;;4975514;28;20523;-63
2020/12/01 08:49:44;;;;;;;35.40;18.00;;;8.00;99.90;;;;;;4974916;28;20429;-63
2020/12/01 08:52:40;;;;;;;38.97;18.47;;;8.00;99.90;;;;;;4989888;28;20802;-63
2020/12/01 08:55:27;;;;;;;39.43;19.70;;;7.90;99.90;;;;;;4996551;28;20417;-63
2020/12/01 08:58:10;;;;;;;46.73;18.70;;;7.90;99.90;;;;;;4996474;28;20428;-63
2020/12/01 09:00:36;;;;;;;44.73;20.70;;;7.90;99.90;;;;;;4996492;28;20428;-63
2020/12/01 09:03:10;;;;;;;46.50;19.90;;;8.00;99.90;;;;;;4996298;28;20439;-63
2020/12/01 09:05:47;;;;;;;42.80;20.87;;;8.00;99.90;;;;;;4996388;28;20208;-62
2020/12/01 09:08:36;;;;;;;48.33;20.57;;;8.00;99.90;;;;;;4996278;28;20419;-63
2020/12/01 09:21:59;;;;;;;43.80;22.63;;;8.10;99.90;;;;;;4995993;28;20471;-63
2020/12/01 09:24:29;;;;;;;44.90;21.70;;;8.10;99.90;;;;;;4995835;28;20494;-63
2020/12/01 09:27:00;;;;;;;46.00;21.23;;;8.10;99.90;;;;;;4995728;28;20428;-63
2020/12/01 09:29:25;;;;;;;42.63;22.20;;;8.10;99.90;;;;;;4995755;28;20431;-63
2020/12/01 09:31:51;;;;;;;43.80;22.43;;;8.10;99.90;;;;;;4995463;28;20874;-63
2020/12/01 09:34:17;;;;;;;40.00;19.83;;;8.10;99.90;;;;;;4995830;28;20242;-62
2020/12/01 09:36:42;;;;;;;55.90;21.80;;;8.10;99.90;;;;;;4995277;28;20181;-62
2020/12/01 09:42:35;;;;;;;37.17;20.00;;;8.20;99.90;;;;;;4995327;28;20647;-62
2020/12/01 09:45:10;;;;;;;35.70;18.83;;;8.30;99.90;;;;;;4995253;28;20551;-65
2020/12/01 09:50:58;;;;;;;38.87;19.60;;;8.30;99.90;;;;;;4995198;28;20509;-62
2020/12/01 09:53:41;;;;;;;37.40;20.53;;;8.30;99.90;;;;;;4995161;28;20440;-61
2020/12/01 09:56:14;;;;;;;38.90;18.20;;;8.30;99.90;;;;;;4995376;28;20653;-61
2020/12/01 10:09:58;;;;;;;38.77;17.97;;;8.40;99.90;;;;;;4994833;28;20531;-61
2020/12/01 10:12:31;;;;;;;34.47;16.83;;;8.50;99.90;;;;;;4994832;28;20447;-62
2020/12/01 10:18:21;;;;;;;31.10;16.30;;;8.50;99.90;;;;;;4994837;28;20444;-64
2020/12/01 10:21:09;;;;;;;28.70;16.90;;;8.50;99.90;;;;;;4994362;28;20436;-62
2020/12/01 10:35:40;;;;;;;29.30;15.13;;;8.60;99.90;;;;;;4994417;28;20424;-62
2020/12/01 10:38:06;;;;;;;32.60;16.70;;;8.60;99.90;;;;;;4994674;28;20770;-62
2020/12/01 10:43:53;;;;;;;28.20;14.30;;;8.60;99.90;;;;;;4994090;28;20184;-62
2020/12/01 10:46:19;;;;;;;28.53;14.20;;;8.60;99.90;;;;;;4994172;28;20499;-62
2020/12/01 10:48:45;;;;;;;26.53;13.63;;;8.80;99.90;;;;;;4993419;28;20215;-62
2020/12/01 10:54:32;;;;;;;21.27;11.90;;;8.70;99.90;;;;;;4994051;28;20165;-62
2020/12/01 10:56:58;;;;;;;25.30;14.20;;;8.70;99.90;;;;;;4994185;28;20428;-62
2020/12/01 10:59:24;;;;;;;22.03;12.63;;;8.70;99.90;;;;;;4994190;28;20659;-62
2020/12/01 11:01:50;;;;;;;22.90;12.30;;;8.70;99.90;;;;;;4994161;28;20308;-62
2020/12/01 11:04:17;;;;;;;21.47;11.57;;;8.80;99.90;;;;;;4993790;28;20427;-63
2020/12/01 11:06:43;;;;;;;18.53;11.63;;;8.80;99.90;;;;;;4994125;28;20490;-62
2020/12/01 11:09:10;;;;;;;20.57;12.00;;;8.80;99.90;;;;;;4993982;28;20444;-62
2020/12/01 11:11:36;;;;;;;17.43;10.67;;;8.80;99.90;;;;;;4993810;28;20791;-62
2020/12/01 11:14:02;;;;;;;16.30;11.10;;;8.80;99.90;;;;;;4993918;28;20420;-63
2020/12/01 11:16:29;;;;;;;18.60;11.20;;;8.90;99.90;;;;;;4994077;28;20184;-63
2020/12/01 11:22:16;;;;;;;13.60;10.20;;;8.90;99.90;;;;;;4993736;28;20990;-63
2020/12/01 11:24:43;;;;;;;15.97;11.17;;;8.90;99.90;;;;;;4993844;28;20428;-63
2020/12/01 11:27:08;;;;;;;17.10;10.87;;;9.00;99.90;;;;;;4993557;28;20499;-63
2020/12/01 11:29:34;;;;;;;20.97;10.50;;;9.00;99.90;;;;;;4993748;28;20432;-63
2020/12/01 11:32:00;;;;;;;16.63;10.87;;;9.00;99.90;;;;;;4993543;28;20181;-62
2020/12/01 11:34:25;;;;;;;22.17;10.93;;;9.00;99.90;;;;;;4993750;28;20519;-63
2020/12/01 11:36:53;;;;;;;15.90;11.40;;;9.10;99.90;;;;;;4993675;28;20219;-62
2020/12/01 11:39:19;;;;;;;15.90;10.43;;;9.10;99.90;;;;;;4993887;28;20191;-63
2020/12/01 11:48:41;;;;;;;14.30;10.30;;;9.20;99.90;;;;;;4993627;28;20415;-63
2020/12/01 11:51:07;;;;;;;14.27;10.43;;;9.30;99.90;;;;;;4993840;28;20437;-63
2020/12/01 11:53:32;;;;;;;13.50;9.77;;;9.30;99.90;;;;;;4993584;28;20166;-62
2020/12/01 11:55:58;;;;;;;11.83;9.50;;;9.30;99.90;;;;;;4993834;28;20207;-60
2020/12/01 11:58:23;;;;;;;13.07;9.90;;;9.20;99.90;;;;;;4994105;28;20166;-60
2020/12/01 12:04:10;;;;;;;13.70;10.10;;;9.20;99.90;;;;;;4997222;28;20161;-60
2020/12/01 12:06:36;;;;;;;13.30;9.63;;;9.30;99.90;;;;;;4997188;28;20436;-60
2020/12/01 12:09:04;;;;;;;17.63;10.13;;;9.30;99.90;;;;;;4997384;28;20173;-60
2020/12/01 12:14:51;;;;;;;14.00;8.97;;;9.30;99.90;;;;;;4997074;28;20788;-60
2020/12/01 12:17:17;;;;;;;15.30;9.43;;;9.30;99.90;;;;;;4997184;28;20432;-60
2020/12/01 12:19:44;;;;;;;15.80;9.43;;;9.20;99.90;;;;;;4996651;28;20255;-61
2020/12/01 12:22:09;;;;;;;14.00;9.37;;;9.30;99.90;;;;;;4996985;28;20205;-60
2020/12/01 12:24:35;;;;;;;16.17;10.13;;;9.30;99.90;;;;;;4996728;28;20427;-60
2020/12/01 12:27:01;;;;;;;14.30;9.27;;;9.30;99.90;;;;;;4996832;28;20267;-61
2020/12/01 12:29:26;;;;;;;12.80;8.90;;;9.30;99.90;;;;;;4996841;28;20169;-60
2020/12/01 12:35:14;;;;;;;11.37;8.20;;;9.30;99.90;;;;;;4996860;28;20641;-60
2020/12/01 12:41:02;;;;;;;10.20;7.93;;;9.40;99.90;;;;;;4996648;28;20168;-61
2020/12/01 12:43:28;;;;;;;10.83;7.77;;;9.40;99.90;;;;;;4996783;28;20867;-60
2020/12/01 12:49:15;;;;;;;11.60;8.30;;;9.40;99.90;;;;;;4996628;28;20428;-60
2020/12/01 12:51:41;;;;;;;10.07;7.87;;;9.40;99.90;;;;;;4996748;28;20420;-60
2020/12/01 12:54:07;;;;;;;11.27;7.63;;;9.40;99.90;;;;;;4998619;28;20185;-60
2020/12/01 12:56:32;;;;;;;10.90;7.40;;;9.40;99.90;;;;;;4998298;28;20196;-60
2020/12/01 13:02:19;;;;;;;12.80;8.13;;;9.40;99.90;;;;;;4996427;28;20301;-60
2020/12/01 13:04:45;;;;;;;9.03;7.40;;;9.40;99.90;;;;;;4996486;28;20511;-60
2020/12/01 13:07:10;;;;;;;12.27;7.63;;;9.40;99.90;;;;;;4996813;28;20684;-60
2020/12/01 13:09:36;;;;;;;13.80;9.93;;;9.50;99.90;;;;;;4996346;28;20264;-60
2020/12/01 13:15:23;;;;;;;12.20;9.73;;;9.50;99.90;;;;;;4996201;28;20679;-64
2020/12/01 13:21:11;;;;;;;16.97;8.80;;;9.50;99.90;;;;;;4995834;28;20259;-62
2020/12/01 13:23:38;;;;;;;14.63;9.67;;;9.50;99.90;;;;;;4978436;28;20811;-63
2020/12/01 13:29:26;;;;;;;11.73;8.30;;;9.50;99.90;;;;;;4995709;28;20471;-63
2020/12/01 13:31:51;;;;;;;11.17;8.40;;;9.50;99.90;;;;;;4995617;28;20428;-63
2020/12/01 13:34:17;;;;;;;12.90;8.63;;;9.50;99.90;;;;;;4995875;28;20252;-62
2020/12/01 13:40:05;;;;;;;13.67;8.67;;;9.50;99.90;;;;;;4996723;28;20168;-62
2020/12/01 13:42:31;;;;;;;12.27;9.03;;;9.50;99.90;;;;;;4996727;28;20472;-62
2020/12/01 13:44:56;;;;;;;10.10;8.33;;;9.40;99.90;;;;;;4995555;28;20468;-62
2020/12/01 13:50:43;;;;;;;11.77;8.27;;;9.50;99.90;;;;;;4995302;28;20199;-63
2020/12/01 13:56:31;;;;;;;10.40;7.23;;;9.40;99.90;;;;;;4995250;28;20296;-63
2020/12/01 13:58:58;;;;;;;11.67;9.30;;;9.50;99.90;;;;;;4995323;28;20504;-63
2020/12/01 14:01:28;;;;;;;11.97;8.50;;;9.50;99.90;;;;;;4995216;28;20523;-63
2020/12/01 14:07:15;;;;;;;10.97;8.20;;;9.40;99.90;;;;;;4994971;28;20415;-63
2020/12/01 14:09:41;;;;;;;12.13;7.40;;;9.50;99.90;;;;;;4994972;28;20475;-63
2020/12/01 14:12:06;;;;;;;12.50;8.73;;;9.50;99.90;;;;;;4995298;28;20632;-63
2020/12/01 14:14:32;;;;;;;11.30;9.27;;;9.50;99.90;;;;;;4995345;28;20173;-63
2020/12/01 14:16:57;;;;;;;12.83;9.03;;;9.50;99.90;;;;;;4995150;28;20192;-63
2020/12/01 14:22:45;;;;;;;12.40;7.40;;;9.50;99.90;;;;;;4993940;28;20225;-63
2020/12/01 14:25:13;;;;;;;10.53;8.67;;;9.50;99.90;;;;;;4995038;28;20432;-64
2020/12/01 14:27:39;;;;;;;14.17;7.73;;;9.50;99.90;;;;;;4994789;28;20620;-63
2020/12/01 14:30:10;;;;;;;8.50;7.13;;;9.60;99.90;;;;;;4994646;28;20990;-63
2020/12/01 14:32:35;;;;;;;8.73;7.27;;;9.50;99.90;;;;;;4994907;28;20420;-63
2020/12/01 14:35:01;;;;;;;15.93;11.73;;;9.50;99.90;;;;;;4994658;28;20435;-63
2020/12/01 14:37:26;;;;;;;29.50;22.27;;;9.50;99.90;;;;;;4994451;28;20181;-63
2020/12/01 14:39:52;;;;;;;16.23;11.40;;;9.50;99.90;;;;;;4994437;28;20257;-63
2020/12/01 14:45:40;;;;;;;14.50;11.20;;;9.50;99.90;;;;;;4989129;28;20240;-63
2020/12/01 14:48:31;;;;;;;14.83;11.60;;;9.50;99.90;;;;;;4994593;28;20428;-63
2020/12/01 14:51:09;;;;;;;15.07;10.70;;;9.50;99.90;;;;;;4994559;28;20173;-63
2020/12/01 14:53:53;;;;;;;15.60;12.10;;;9.50;99.90;;;;;;4994542;28;20420;-63
2020/12/01 14:56:59;;;;;;;15.87;11.53;;;9.50;99.90;;;;;;4994461;28;20428;-63
2020/12/01 14:59:40;;;;;;;20.43;11.63;;;9.40;99.90;;;;;;4994512;28;20822;-63
2020/12/01 15:02:14;;;;;;;16.57;12.30;;;9.40;99.90;;;;;;4994656;28;20468;-63
2020/12/01 15:08:31;;;;;;;18.30;11.80;;;9.30;99.90;;;;;;4994153;28;20406;-63
2020/12/01 15:14:19;;;;;;;16.97;11.27;;;9.20;99.90;;;;;;4994099;28;20545;-64
2020/12/01 15:20:09;;;;;;;13.40;9.07;;;9.20;99.90;;;;;;4994070;28;20404;-63
2020/12/01 15:22:38;;;;;;;13.23;8.80;;;9.20;99.90;;;;;;4994119;28;20468;-63
2020/12/01 15:28:34;;;;;;;13.80;9.70;;;9.10;99.90;;;;;;4994020;28;20451;-63
2020/12/01 15:31:00;;;;;;;11.70;8.77;;;9.10;99.90;;;;;;4993953;28;20811;-63
2020/12/01 15:33:29;;;;;;;14.93;9.27;;;9.10;99.90;;;;;;4994435;28;20416;-64
2020/12/01 15:36:00;;;;;;;15.97;11.00;;;9.00;99.90;;;;;;4998022;28;20583;-67
2020/12/01 15:38:28;;;;;;;17.43;11.63;;;9.10;99.90;;;;;;4996758;28;20440;-66
2020/12/01 15:40:57;;;;;;;16.90;11.00;;;9.20;99.90;;;;;;4997970;28;20455;-68
2020/12/01 15:43:25;;;;;;;13.33;10.10;;;9.20;99.90;;;;;;4998015;28;20432;-66
2020/12/01 15:45:52;;;;;;;14.67;10.90;;;9.20;99.90;;;;;;4997671;28;20545;-66
2020/12/01 15:48:24;;;;;;;14.80;10.67;;;9.20;99.90;;;;;;4980714;28;20439;-66
2020/12/01 15:51:27;;;;;;;12.20;9.73;;;9.10;99.90;;;;;;4997583;28;20463;-66
2020/12/01 15:54:07;;;;;;;15.80;9.87;;;9.10;99.90;;;;;;4997844;28;20428;-66
2020/12/01 15:57:00;;;;;;;13.97;10.17;;;9.10;99.90;;;;;;4997804;28;20422;-65
2020/12/01 16:00:08;;;;;;;15.47;10.87;;;9.10;99.90;;;;;;4999027;28;20427;-66
2020/12/01 16:02:42;;;;;;;17.10;9.50;;;9.10;99.90;;;;;;4997243;28;20456;-67
2020/12/01 16:05:36;;;;;;;17.77;10.80;;;9.10;99.90;;;;;;4997577;28;20409;-66
2020/12/01 16:08:29;;;;;;;15.93;11.30;;;9.00;99.90;;;;;;4997593;28;20416;-66
2020/12/01 16:11:08;;;;;;;19.07;9.43;;;9.00;99.90;;;;;;4997215;28;20899;-65
2020/12/01 16:13:37;;;;;;;15.60;9.40;;;9.00;99.90;;;;;;4997441;28;20440;-65
2020/12/01 16:16:29;;;;;;;13.33;9.20;;;9.00;99.90;;;;;;4997345;28;20427;-65
2020/12/01 16:22:18;;;;;;;11.47;8.77;;;9.00;99.90;;;;;;4996779;28;20526;-76
2020/12/01 16:28:24;;;;;;;10.87;8.40;;;9.00;99.90;;;;;;4996761;28;20408;-65
2020/12/01 16:30:50;;;;;;;11.87;8.67;;;9.00;99.90;;;;;;4997187;28;20751;-65
2020/12/01 16:37:13;;;;;;;16.20;8.03;;;8.90;99.90;;;;;;4996583;28;20172;-66
2020/12/01 16:40:00;;;;;;;11.53;7.97;;;8.90;99.90;;;;;;4996813;28;20432;-65
2020/12/01 16:49:24;;;;;;;11.77;7.53;;;9.00;99.90;;;;;;4996458;28;20858;-76
2020/12/01 16:51:55;;;;;;;11.40;8.67;;;8.90;99.90;;;;;;4996612;28;20452;-67
2020/12/01 16:58:22;;;;;;;10.27;7.03;;;9.00;99.90;;;;;;4996438;28;20930;-70
2020/12/01 17:00:50;;;;;;;10.00;7.63;;;9.00;99.90;;;;;;4999037;28;20753;-66
2020/12/01 17:04:14;;;;;;;9.47;8.20;;;9.00;99.90;;;;;;4996185;28;20475;-66
2020/12/01 17:07:12;;;;;;;9.87;8.07;;;9.00;99.90;;;;;;4891073;29;20436;-70
2020/12/01 17:13:34;;;;;;;10.70;8.23;;;9.10;99.90;;;;;;4996051;28;20458;-65
2020/12/01 17:19:25;;;;;;;13.00;7.60;;;9.00;99.90;;;;;;4995876;28;20422;-66
2020/12/01 17:21:51;;;;;;;11.83;8.27;;;9.00;99.90;;;;;;4995468;28;20574;-67
2020/12/01 17:27:41;;;;;;;10.90;7.87;;;9.00;99.90;;;;;;4995789;28;20424;-66
2020/12/01 17:30:23;;;;;;;11.13;9.20;;;9.00;99.90;;;;;;4995608;28;20447;-66
2020/12/01 17:33:24;;;;;;;9.03;7.57;;;9.00;99.90;;;;;;4995587;28;20412;-66
2020/12/01 17:36:07;;;;;;;8.80;7.40;;;9.00;99.90;;;;;;4995394;28;20945;-66
2020/12/01 17:39:00;;;;;;;9.90;7.67;;;9.00;99.90;;;;;;4995736;28;20866;-66
2020/12/01 17:42:02;;;;;;;11.47;8.00;;;9.00;99.90;;;;;;4995263;28;20963;-66
2020/12/01 17:48:25;;;;;;;11.57;8.30;;;9.00;99.90;;;;;;4990837;28;20478;-66
2020/12/01 17:54:19;;;;;;;10.07;8.53;;;9.00;99.90;;;;;;4994998;28;20415;-65
2020/12/01 17:56:49;;;;;;;18.67;10.43;;;9.00;99.90;;;;;;4995364;28;20424;-65
2020/12/01 17:59:21;;;;;;;12.20;8.50;;;9.00;99.90;;;;;;4994965;28;20906;-66
2020/12/01 18:05:16;;;;;;;14.43;9.57;;;8.90;99.90;;;;;;4994993;28;20467;-67
2020/12/01 18:07:42;;;;;;;13.67;9.40;;;8.90;99.90;;;;;;4995286;28;20486;-66
2020/12/01 18:10:09;;;;;;;14.20;9.90;;;8.90;99.90;;;;;;4994939;28;20417;-66
2020/12/01 18:13:00;;;;;;;13.57;7.93;;;8.90;99.90;;;;;;4994861;28;20227;-65
2020/12/01 18:15:37;;;;;;;13.73;7.60;;;8.90;99.90;;;;;;4995067;28;20420;-68
2020/12/01 18:18:12;;;;;;;15.60;9.23;;;8.80;99.90;;;;;;4995019;28;20435;-65
2020/12/01 18:24:37;;;;;;;12.87;8.67;;;8.90;99.90;;;;;;4994769;28;20440;-69
2020/12/01 18:27:12;;;;;;;12.87;8.20;;;8.90;99.90;;;;;;4951511;28;20440;-68
2020/12/01 18:29:48;;;;;;;12.37;9.23;;;8.90;99.90;;;;;;4994911;28;20443;-69
2020/12/01 18:32:25;;;;;;;18.40;10.87;;;8.90;99.90;;;;;;4994800;28;20426;-68